JP-0075 weather

Yokoyama Ryu Memorial Comics Hall Helipad
Kochi, Kōchi Prefecture, Japan

Public forecast

Using degrees Celsius for public forecast. Weather courtesy of forecast.io.

METAR (pilot weather report)

Report is more than 2 hours old.

Closest report is Kōchi Ryōma Airport, 6.2 nm (11.4 km) E. Retrieved 2019/05/22 11:00 UTC (4 hours ago):

RJOK 221100Z 06003KT CAVOK 20/13 Q1007

TAF (pilot weather forecast)

Closest forecast is Kōchi Ryōma Airport, 6.2 nm (11.4 km) E. Retrieved 2019/05/22 12:30 UTC (2 hours ago):

TAF RJOK 221108Z 2212/2318 35005KT 9999 FEW035 BECMG 2300/2303 18009KT BECMG 2309/2312 36005KT